Main page
METAR-TAF:

METAR-TAF

Airports :

Lechfeld, Germany

Lechfeld Air Base

latitude: 48-11N, longitude: 010-52E, elevation: 555 m

Current weather observation

The report was made 23 minutes ago, at 22:20 UTC
Wind 3 kt from the North
Temperature 8°C
Humidity 61%
Pressure 1019 hPa
Visibility 10 km or more
Few clouds at a height of 5000 ft
Broken clouds at a height of 25000 ft

METAR: ETSL 262220Z 01003KT 9999 FEW050 BKN250 08/01 Q1019 BLU+

Time: 00:43 (22:43 UTC)

Forecast

The report was made 7 hours and 43 minutes ago, at 15:00 UTC
Forecast valid from 26 at 14 UTC to 26 at 23 UTC
Wind 10 kt from the West/Southwest
Visibility: 1500 m
Few clouds at a height of 3000 ft
Broken clouds at a height of 5000 ft

TAF: ETSL 261500Z 2614/2623 24010KT 9999 NSW FEW030 BKN050 CANCEL 1500 BY ETGL

Weather observations and forecasts of more than 4000 airports (METAR and TAF reports).

The available stations are represented by yellow and red dots on the map.

Hover mouse over dot to see the name of the station.

Then click to see weather observations and forecasts.

To change the map : click on the green buttons with a black cross to zoom in, on the green button with a dash to zoom out, or on the green arrows for adjacent maps.


METAR-TAF: